sensor_id;sensor_type;location;lat;lon;timestamp;P1;durP1;ratioP1;P2;durP2;ratioP2
29814;SDS011;16708;50.426;7.664;2023-07-31T00:00:25;7.30;;;2.00;;
29814;SDS011;16708;50.426;7.664;2023-07-31T00:05:20;6.30;;;2.00;;
29814;SDS011;16708;50.426;7.664;2023-07-31T00:10:15;7.00;;;1.80;;
29814;SDS011;16708;50.426;7.664;2023-07-31T00:15:09;8.70;;;1.90;;
29814;SDS011;16708;50.426;7.664;2023-07-31T00:20:04;7.40;;;2.10;;
29814;SDS011;16708;50.426;7.664;2023-07-31T00:24:58;5.20;;;1.90;;
29814;SDS011;16708;50.426;7.664;2023-07-31T00:29:53;4.50;;;1.80;;
29814;SDS011;16708;50.426;7.664;2023-07-31T00:34:46;5.00;;;1.90;;
29814;SDS011;16708;50.426;7.664;2023-07-31T00:39:39;6.90;;;2.00;;
29814;SDS011;16708;50.426;7.664;2023-07-31T00:44:34;6.90;;;1.90;;
29814;SDS011;16708;50.426;7.664;2023-07-31T00:49:28;6.30;;;1.80;;
29814;SDS011;16708;50.426;7.664;2023-07-31T00:54:22;6.80;;;1.60;;
29814;SDS011;16708;50.426;7.664;2023-07-31T00:59:17;7.00;;;1.80;;
29814;SDS011;16708;50.426;7.664;2023-07-31T01:04:11;6.60;;;2.10;;
29814;SDS011;16708;50.426;7.664;2023-07-31T01:09:06;5.60;;;1.70;;
29814;SDS011;16708;50.426;7.664;2023-07-31T01:14:00;4.10;;;1.70;;
29814;SDS011;16708;50.426;7.664;2023-07-31T01:18:55;7.00;;;2.10;;
29814;SDS011;16708;50.426;7.664;2023-07-31T01:28:43;6.70;;;2.10;;
29814;SDS011;16708;50.426;7.664;2023-07-31T01:33:38;5.40;;;2.20;;
29814;SDS011;16708;50.426;7.664;2023-07-31T01:38:32;4.30;;;2.20;;
29814;SDS011;16708;50.426;7.664;2023-07-31T01:43:26;6.70;;;2.20;;
29814;SDS011;16708;50.426;7.664;2023-07-31T01:48:21;6.70;;;1.80;;
29814;SDS011;16708;50.426;7.664;2023-07-31T01:53:15;6.70;;;2.60;;
29814;SDS011;16708;50.426;7.664;2023-07-31T01:58:09;6.30;;;2.20;;
29814;SDS011;16708;50.426;7.664;2023-07-31T02:03:02;5.30;;;2.30;;
29814;SDS011;16708;50.426;7.664;2023-07-31T02:07:56;5.40;;;2.20;;
29814;SDS011;16708;50.426;7.664;2023-07-31T02:12:50;5.10;;;2.10;;
29814;SDS011;16708;50.426;7.664;2023-07-31T02:17:43;6.20;;;2.30;;
29814;SDS011;16708;50.426;7.664;2023-07-31T02:22:38;4.60;;;2.10;;
29814;SDS011;16708;50.426;7.664;2023-07-31T02:27:32;6.40;;;2.50;;
29814;SDS011;16708;50.426;7.664;2023-07-31T02:32:26;4.00;;;2.10;;
29814;SDS011;16708;50.426;7.664;2023-07-31T02:37:20;5.40;;;2.10;;
29814;SDS011;16708;50.426;7.664;2023-07-31T02:42:14;6.70;;;2.00;;
29814;SDS011;16708;50.426;7.664;2023-07-31T02:47:08;4.40;;;2.00;;
29814;SDS011;16708;50.426;7.664;2023-07-31T02:52:03;5.20;;;2.20;;
29814;SDS011;16708;50.426;7.664;2023-07-31T02:56:58;8.60;;;2.20;;
29814;SDS011;16708;50.426;7.664;2023-07-31T03:01:51;6.20;;;2.30;;
29814;SDS011;16708;50.426;7.664;2023-07-31T03:06:46;6.50;;;2.50;;
29814;SDS011;16708;50.426;7.664;2023-07-31T03:11:40;3.40;;;2.00;;
29814;SDS011;16708;50.426;7.664;2023-07-31T03:16:35;6.30;;;2.10;;
29814;SDS011;16708;50.426;7.664;2023-07-31T03:21:29;4.30;;;2.30;;
29814;SDS011;16708;50.426;7.664;2023-07-31T03:26:23;6.30;;;2.20;;
29814;SDS011;16708;50.426;7.664;2023-07-31T03:31:18;7.40;;;2.90;;
29814;SDS011;16708;50.426;7.664;2023-07-31T03:36:12;7.40;;;2.30;;
29814;SDS011;16708;50.426;7.664;2023-07-31T03:41:07;5.40;;;1.80;;
29814;SDS011;16708;50.426;7.664;2023-07-31T03:46:01;5.10;;;2.10;;
29814;SDS011;16708;50.426;7.664;2023-07-31T03:50:56;6.50;;;2.20;;
29814;SDS011;16708;50.426;7.664;2023-07-31T03:55:51;3.50;;;1.90;;
29814;SDS011;16708;50.426;7.664;2023-07-31T04:00:45;4.60;;;2.30;;
29814;SDS011;16708;50.426;7.664;2023-07-31T04:05:39;5.50;;;2.10;;
29814;SDS011;16708;50.426;7.664;2023-07-31T04:10:34;4.00;;;2.20;;
29814;SDS011;16708;50.426;7.664;2023-07-31T04:15:28;5.20;;;1.80;;
29814;SDS011;16708;50.426;7.664;2023-07-31T04:20:22;5.10;;;2.10;;
29814;SDS011;16708;50.426;7.664;2023-07-31T04:25:17;3.90;;;2.00;;
29814;SDS011;16708;50.426;7.664;2023-07-31T04:30:10;4.20;;;1.90;;
29814;SDS011;16708;50.426;7.664;2023-07-31T04:35:03;4.00;;;2.10;;
29814;SDS011;16708;50.426;7.664;2023-07-31T04:39:57;5.20;;;2.10;;
29814;SDS011;16708;50.426;7.664;2023-07-31T04:44:51;3.90;;;1.90;;
29814;SDS011;16708;50.426;7.664;2023-07-31T04:49:46;4.10;;;1.90;;
29814;SDS011;16708;50.426;7.664;2023-07-31T04:54:40;6.70;;;2.40;;
29814;SDS011;16708;50.426;7.664;2023-07-31T04:59:35;4.30;;;1.90;;
29814;SDS011;16708;50.426;7.664;2023-07-31T05:04:29;4.00;;;1.80;;
29814;SDS011;16708;50.426;7.664;2023-07-31T05:09:24;7.40;;;2.40;;
29814;SDS011;16708;50.426;7.664;2023-07-31T05:14:18;4.90;;;1.90;;
29814;SDS011;16708;50.426;7.664;2023-07-31T05:19:13;5.80;;;2.10;;
29814;SDS011;16708;50.426;7.664;2023-07-31T05:24:07;4.70;;;1.90;;
29814;SDS011;16708;50.426;7.664;2023-07-31T05:29:02;3.90;;;1.90;;
29814;SDS011;16708;50.426;7.664;2023-07-31T05:33:56;5.10;;;2.00;;
29814;SDS011;16708;50.426;7.664;2023-07-31T05:38:50;4.80;;;2.00;;
29814;SDS011;16708;50.426;7.664;2023-07-31T05:43:44;5.20;;;2.10;;
29814;SDS011;16708;50.426;7.664;2023-07-31T05:48:39;5.60;;;2.20;;
29814;SDS011;16708;50.426;7.664;2023-07-31T05:53:33;4.80;;;2.00;;
29814;SDS011;16708;50.426;7.664;2023-07-31T05:58:27;5.80;;;2.20;;
29814;SDS011;16708;50.426;7.664;2023-07-31T06:03:21;6.60;;;2.20;;
29814;SDS011;16708;50.426;7.664;2023-07-31T06:08:15;5.60;;;2.40;;
29814;SDS011;16708;50.426;7.664;2023-07-31T06:13:10;7.00;;;2.50;;
29814;SDS011;16708;50.426;7.664;2023-07-31T06:18:04;6.10;;;2.40;;
29814;SDS011;16708;50.426;7.664;2023-07-31T06:22:59;8.90;;;2.70;;
29814;SDS011;16708;50.426;7.664;2023-07-31T06:27:54;6.10;;;2.40;;
29814;SDS011;16708;50.426;7.664;2023-07-31T06:32:49;4.60;;;2.20;;
29814;SDS011;16708;50.426;7.664;2023-07-31T06:37:43;5.50;;;2.70;;
29814;SDS011;16708;50.426;7.664;2023-07-31T06:42:37;9.30;;;2.50;;
29814;SDS011;16708;50.426;7.664;2023-07-31T06:47:31;7.10;;;2.40;;
29814;SDS011;16708;50.426;7.664;2023-07-31T06:52:25;6.50;;;2.60;;
29814;SDS011;16708;50.426;7.664;2023-07-31T06:57:20;9.70;;;3.00;;
29814;SDS011;16708;50.426;7.664;2023-07-31T07:02:14;7.30;;;2.60;;
29814;SDS011;16708;50.426;7.664;2023-07-31T07:07:09;7.80;;;2.90;;
29814;SDS011;16708;50.426;7.664;2023-07-31T07:12:04;10.90;;;2.70;;
29814;SDS011;16708;50.426;7.664;2023-07-31T07:16:58;7.70;;;2.70;;
29814;SDS011;16708;50.426;7.664;2023-07-31T07:21:53;10.00;;;2.90;;
29814;SDS011;16708;50.426;7.664;2023-07-31T07:26:47;8.90;;;2.90;;
29814;SDS011;16708;50.426;7.664;2023-07-31T07:31:42;6.70;;;2.60;;
29814;SDS011;16708;50.426;7.664;2023-07-31T07:36:35;8.20;;;2.70;;
29814;SDS011;16708;50.426;7.664;2023-07-31T07:41:30;7.00;;;2.30;;
29814;SDS011;16708;50.426;7.664;2023-07-31T07:46:24;10.90;;;3.00;;
29814;SDS011;16708;50.426;7.664;2023-07-31T07:51:19;5.30;;;2.40;;
29814;SDS011;16708;50.426;7.664;2023-07-31T07:56:13;7.00;;;2.60;;
29814;SDS011;16708;50.426;7.664;2023-07-31T08:01:08;7.20;;;2.80;;
29814;SDS011;16708;50.426;7.664;2023-07-31T08:06:02;7.10;;;2.80;;
29814;SDS011;16708;50.426;7.664;2023-07-31T08:10:57;5.80;;;2.30;;
29814;SDS011;16708;50.426;7.664;2023-07-31T08:15:51;8.10;;;2.80;;
29814;SDS011;16708;50.426;7.664;2023-07-31T08:20:45;6.80;;;2.80;;
29814;SDS011;16708;50.426;7.664;2023-07-31T08:25:39;8.40;;;2.80;;
29814;SDS011;16708;50.426;7.664;2023-07-31T08:30:33;9.60;;;3.10;;
29814;SDS011;16708;50.426;7.664;2023-07-31T08:35:26;6.70;;;3.00;;
29814;SDS011;16708;50.426;7.664;2023-07-31T08:40:21;6.70;;;3.10;;
29814;SDS011;16708;50.426;7.664;2023-07-31T08:45:15;7.20;;;3.30;;
29814;SDS011;16708;50.426;7.664;2023-07-31T08:50:10;9.00;;;3.40;;
29814;SDS011;16708;50.426;7.664;2023-07-31T08:55:04;11.20;;;3.90;;
29814;SDS011;16708;50.426;7.664;2023-07-31T08:59:59;10.80;;;4.10;;
29814;SDS011;16708;50.426;7.664;2023-07-31T09:04:54;10.60;;;3.40;;
29814;SDS011;16708;50.426;7.664;2023-07-31T09:09:47;7.30;;;3.30;;
29814;SDS011;16708;50.426;7.664;2023-07-31T09:14:41;8.90;;;3.20;;
29814;SDS011;16708;50.426;7.664;2023-07-31T09:29:23;7.10;;;2.90;;
29814;SDS011;16708;50.426;7.664;2023-07-31T09:34:17;6.80;;;3.10;;
29814;SDS011;16708;50.426;7.664;2023-07-31T09:39:12;7.10;;;2.80;;
29814;SDS011;16708;50.426;7.664;2023-07-31T09:53:55;6.60;;;2.80;;
29814;SDS011;16708;50.426;7.664;2023-07-31T09:58:49;11.00;;;3.00;;
29814;SDS011;16708;50.426;7.664;2023-07-31T10:03:43;7.50;;;2.90;;
29814;SDS011;16708;50.426;7.664;2023-07-31T10:08:38;9.10;;;3.20;;
29814;SDS011;16708;50.426;7.664;2023-07-31T10:13:32;6.50;;;2.70;;
29814;SDS011;16708;50.426;7.664;2023-07-31T10:18:26;9.10;;;2.80;;
29814;SDS011;16708;50.426;7.664;2023-07-31T10:23:18;10.10;;;3.10;;
29814;SDS011;16708;50.426;7.664;2023-07-31T10:28:13;7.70;;;2.70;;
29814;SDS011;16708;50.426;7.664;2023-07-31T10:33:07;7.60;;;2.80;;
29814;SDS011;16708;50.426;7.664;2023-07-31T10:38:02;6.50;;;2.80;;
29814;SDS011;16708;50.426;7.664;2023-07-31T10:42:56;6.60;;;2.70;;
29814;SDS011;16708;50.426;7.664;2023-07-31T11:07:27;6.70;;;2.70;;
29814;SDS011;16708;50.426;7.664;2023-07-31T11:12:21;5.00;;;2.70;;
29814;SDS011;16708;50.426;7.664;2023-07-31T11:17:15;4.80;;;2.30;;
29814;SDS011;16708;50.426;7.664;2023-07-31T11:22:10;6.30;;;2.40;;
29814;SDS011;16708;50.426;7.664;2023-07-31T11:27:05;4.10;;;1.80;;
29814;SDS011;16708;50.426;7.664;2023-07-31T11:31:59;5.30;;;1.60;;
29814;SDS011;16708;50.426;7.664;2023-07-31T11:36:54;4.10;;;1.60;;
29814;SDS011;16708;50.426;7.664;2023-07-31T11:41:48;4.50;;;1.60;;
29814;SDS011;16708;50.426;7.664;2023-07-31T11:46:43;3.20;;;1.60;;
29814;SDS011;16708;50.426;7.664;2023-07-31T11:51:37;4.80;;;1.70;;
29814;SDS011;16708;50.426;7.664;2023-07-31T11:56:31;3.90;;;1.50;;
29814;SDS011;16708;50.426;7.664;2023-07-31T12:01:25;3.00;;;1.30;;
29814;SDS011;16708;50.426;7.664;2023-07-31T12:06:19;3.90;;;1.30;;
29814;SDS011;16708;50.426;7.664;2023-07-31T12:11:13;5.90;;;1.40;;
29814;SDS011;16708;50.426;7.664;2023-07-31T12:16:08;3.60;;;1.50;;
29814;SDS011;16708;50.426;7.664;2023-07-31T12:21:03;2.40;;;1.40;;
29814;SDS011;16708;50.426;7.664;2023-07-31T12:25:58;3.40;;;1.60;;
29814;SDS011;16708;50.426;7.664;2023-07-31T12:30:53;2.40;;;1.50;;
29814;SDS011;16708;50.426;7.664;2023-07-31T12:35:47;2.90;;;1.60;;
29814;SDS011;16708;50.426;7.664;2023-07-31T12:40:41;4.30;;;1.70;;
29814;SDS011;16708;50.426;7.664;2023-07-31T12:45:37;3.30;;;2.10;;
29814;SDS011;16708;50.426;7.664;2023-07-31T12:50:31;4.90;;;2.10;;
29814;SDS011;16708;50.426;7.664;2023-07-31T12:55:25;4.30;;;2.10;;
29814;SDS011;16708;50.426;7.664;2023-07-31T13:00:18;4.80;;;2.30;;
29814;SDS011;16708;50.426;7.664;2023-07-31T13:05:12;4.50;;;2.10;;
29814;SDS011;16708;50.426;7.664;2023-07-31T13:10:08;5.00;;;2.20;;
29814;SDS011;16708;50.426;7.664;2023-07-31T13:15:01;6.80;;;2.00;;
29814;SDS011;16708;50.426;7.664;2023-07-31T13:19:54;5.40;;;2.10;;
29814;SDS011;16708;50.426;7.664;2023-07-31T13:24:48;3.80;;;1.90;;
29814;SDS011;16708;50.426;7.664;2023-07-31T13:29:42;3.20;;;1.60;;
29814;SDS011;16708;50.426;7.664;2023-07-31T13:34:37;3.30;;;1.70;;
29814;SDS011;16708;50.426;7.664;2023-07-31T13:39:31;4.80;;;1.60;;
29814;SDS011;16708;50.426;7.664;2023-07-31T13:44:25;2.50;;;1.20;;
29814;SDS011;16708;50.426;7.664;2023-07-31T13:49:20;3.80;;;1.40;;
29814;SDS011;16708;50.426;7.664;2023-07-31T13:54:14;5.60;;;1.30;;
29814;SDS011;16708;50.426;7.664;2023-07-31T13:59:09;2.60;;;1.10;;
29814;SDS011;16708;50.426;7.664;2023-07-31T14:04:04;1.60;;;1.00;;
29814;SDS011;16708;50.426;7.664;2023-07-31T14:08:58;2.50;;;1.40;;
29814;SDS011;16708;50.426;7.664;2023-07-31T14:13:53;2.70;;;1.10;;
29814;SDS011;16708;50.426;7.664;2023-07-31T14:18:47;2.10;;;1.10;;
29814;SDS011;16708;50.426;7.664;2023-07-31T14:23:42;2.70;;;1.00;;
29814;SDS011;16708;50.426;7.664;2023-07-31T14:28:36;2.10;;;1.30;;
29814;SDS011;16708;50.426;7.664;2023-07-31T14:33:31;2.80;;;1.40;;
29814;SDS011;16708;50.426;7.664;2023-07-31T14:38:25;4.10;;;1.60;;
29814;SDS011;16708;50.426;7.664;2023-07-31T14:43:20;4.10;;;1.40;;
29814;SDS011;16708;50.426;7.664;2023-07-31T14:48:14;3.30;;;1.60;;
29814;SDS011;16708;50.426;7.664;2023-07-31T14:53:08;2.60;;;1.30;;
29814;SDS011;16708;50.426;7.664;2023-07-31T14:58:02;3.60;;;2.20;;
29814;SDS011;16708;50.426;7.664;2023-07-31T15:02:57;4.30;;;1.50;;
29814;SDS011;16708;50.426;7.664;2023-07-31T15:07:50;3.20;;;1.20;;
29814;SDS011;16708;50.426;7.664;2023-07-31T15:12:44;4.70;;;1.40;;
29814;SDS011;16708;50.426;7.664;2023-07-31T15:17:38;3.40;;;1.40;;
29814;SDS011;16708;50.426;7.664;2023-07-31T15:22:33;4.10;;;1.30;;
29814;SDS011;16708;50.426;7.664;2023-07-31T15:27:27;5.50;;;1.20;;
29814;SDS011;16708;50.426;7.664;2023-07-31T15:32:21;4.60;;;1.50;;
29814;SDS011;16708;50.426;7.664;2023-07-31T15:37:15;3.80;;;1.60;;
29814;SDS011;16708;50.426;7.664;2023-07-31T15:42:10;4.90;;;1.90;;
29814;SDS011;16708;50.426;7.664;2023-07-31T15:47:04;5.30;;;1.70;;
29814;SDS011;16708;50.426;7.664;2023-07-31T15:51:57;5.00;;;2.00;;
29814;SDS011;16708;50.426;7.664;2023-07-31T15:56:52;6.90;;;2.30;;
29814;SDS011;16708;50.426;7.664;2023-07-31T16:01:46;5.10;;;2.20;;
29814;SDS011;16708;50.426;7.664;2023-07-31T16:06:40;6.60;;;2.00;;
29814;SDS011;16708;50.426;7.664;2023-07-31T16:11:35;6.20;;;2.70;;
29814;SDS011;16708;50.426;7.664;2023-07-31T16:16:29;6.00;;;2.00;;
29814;SDS011;16708;50.426;7.664;2023-07-31T16:21:23;6.70;;;2.30;;
29814;SDS011;16708;50.426;7.664;2023-07-31T16:26:17;4.60;;;2.40;;
29814;SDS011;16708;50.426;7.664;2023-07-31T16:31:11;8.70;;;2.40;;
29814;SDS011;16708;50.426;7.664;2023-07-31T16:36:05;5.90;;;2.60;;
29814;SDS011;16708;50.426;7.664;2023-07-31T16:40:59;5.80;;;2.40;;
29814;SDS011;16708;50.426;7.664;2023-07-31T16:45:53;8.90;;;3.20;;
29814;SDS011;16708;50.426;7.664;2023-07-31T16:50:47;11.70;;;3.50;;
29814;SDS011;16708;50.426;7.664;2023-07-31T16:55:41;7.80;;;3.10;;
29814;SDS011;16708;50.426;7.664;2023-07-31T17:00:35;8.70;;;3.40;;
29814;SDS011;16708;50.426;7.664;2023-07-31T17:05:29;6.40;;;2.80;;
29814;SDS011;16708;50.426;7.664;2023-07-31T17:10:24;8.00;;;2.90;;
29814;SDS011;16708;50.426;7.664;2023-07-31T17:15:18;9.40;;;3.50;;
29814;SDS011;16708;50.426;7.664;2023-07-31T17:20:13;10.80;;;3.40;;
29814;SDS011;16708;50.426;7.664;2023-07-31T17:25:07;10.70;;;3.60;;
29814;SDS011;16708;50.426;7.664;2023-07-31T17:30:02;9.00;;;3.70;;
29814;SDS011;16708;50.426;7.664;2023-07-31T17:34:56;11.00;;;4.00;;
29814;SDS011;16708;50.426;7.664;2023-07-31T17:39:51;9.40;;;3.80;;
29814;SDS011;16708;50.426;7.664;2023-07-31T17:44:45;8.70;;;3.80;;
29814;SDS011;16708;50.426;7.664;2023-07-31T17:49:39;11.30;;;4.10;;
29814;SDS011;16708;50.426;7.664;2023-07-31T17:54:34;11.90;;;4.60;;
29814;SDS011;16708;50.426;7.664;2023-07-31T17:59:28;8.40;;;3.50;;
29814;SDS011;16708;50.426;7.664;2023-07-31T18:04:22;11.30;;;3.60;;
29814;SDS011;16708;50.426;7.664;2023-07-31T18:09:17;14.30;;;4.20;;
29814;SDS011;16708;50.426;7.664;2023-07-31T18:14:11;11.00;;;4.10;;
29814;SDS011;16708;50.426;7.664;2023-07-31T18:19:05;8.10;;;3.90;;
29814;SDS011;16708;50.426;7.664;2023-07-31T18:23:59;12.70;;;4.30;;
29814;SDS011;16708;50.426;7.664;2023-07-31T18:28:52;14.40;;;4.90;;
29814;SDS011;16708;50.426;7.664;2023-07-31T18:33:46;12.60;;;4.80;;
29814;SDS011;16708;50.426;7.664;2023-07-31T18:38:41;13.00;;;4.70;;
29814;SDS011;16708;50.426;7.664;2023-07-31T18:43:35;10.80;;;5.00;;
29814;SDS011;16708;50.426;7.664;2023-07-31T18:48:29;15.30;;;5.10;;
29814;SDS011;16708;50.426;7.664;2023-07-31T18:53:23;15.60;;;5.00;;
29814;SDS011;16708;50.426;7.664;2023-07-31T18:58:18;13.00;;;5.00;;
29814;SDS011;16708;50.426;7.664;2023-07-31T19:03:08;11.70;;;4.60;;
29814;SDS011;16708;50.426;7.664;2023-07-31T19:08:02;15.00;;;5.10;;
29814;SDS011;16708;50.426;7.664;2023-07-31T19:12:54;9.60;;;5.00;;
29814;SDS011;16708;50.426;7.664;2023-07-31T19:17:49;16.70;;;5.30;;
29814;SDS011;16708;50.426;7.664;2023-07-31T19:22:43;12.60;;;4.70;;
29814;SDS011;16708;50.426;7.664;2023-07-31T19:27:38;13.20;;;4.90;;
29814;SDS011;16708;50.426;7.664;2023-07-31T19:32:31;10.20;;;4.50;;
29814;SDS011;16708;50.426;7.664;2023-07-31T19:37:26;11.80;;;4.60;;
29814;SDS011;16708;50.426;7.664;2023-07-31T19:42:20;11.90;;;4.60;;
29814;SDS011;16708;50.426;7.664;2023-07-31T19:47:15;12.60;;;5.10;;
29814;SDS011;16708;50.426;7.664;2023-07-31T19:52:09;13.70;;;5.30;;
29814;SDS011;16708;50.426;7.664;2023-07-31T19:57:03;14.10;;;5.80;;
29814;SDS011;16708;50.426;7.664;2023-07-31T20:01:57;13.20;;;5.40;;
29814;SDS011;16708;50.426;7.664;2023-07-31T20:06:52;16.60;;;5.70;;
29814;SDS011;16708;50.426;7.664;2023-07-31T20:11:46;18.90;;;6.30;;
29814;SDS011;16708;50.426;7.664;2023-07-31T20:16:42;16.00;;;5.90;;
29814;SDS011;16708;50.426;7.664;2023-07-31T20:21:35;16.60;;;6.20;;
29814;SDS011;16708;50.426;7.664;2023-07-31T20:26:28;18.70;;;6.50;;
29814;SDS011;16708;50.426;7.664;2023-07-31T20:31:22;20.20;;;7.00;;
29814;SDS011;16708;50.426;7.664;2023-07-31T20:41:09;21.00;;;6.80;;
29814;SDS011;16708;50.426;7.664;2023-07-31T20:46:03;19.00;;;5.80;;
29814;SDS011;16708;50.426;7.664;2023-07-31T20:50:58;16.60;;;6.10;;
29814;SDS011;16708;50.426;7.664;2023-07-31T20:55:53;14.60;;;5.30;;
29814;SDS011;16708;50.426;7.664;2023-07-31T21:00:47;18.60;;;5.90;;
29814;SDS011;16708;50.426;7.664;2023-07-31T21:05:42;12.70;;;5.40;;
29814;SDS011;16708;50.426;7.664;2023-07-31T21:10:36;13.40;;;5.00;;
29814;SDS011;16708;50.426;7.664;2023-07-31T21:15:30;16.40;;;5.50;;
29814;SDS011;16708;50.426;7.664;2023-07-31T21:20:24;11.70;;;5.00;;
29814;SDS011;16708;50.426;7.664;2023-07-31T21:25:19;12.90;;;5.00;;
29814;SDS011;16708;50.426;7.664;2023-07-31T21:30:13;13.60;;;5.30;;
29814;SDS011;16708;50.426;7.664;2023-07-31T21:35:08;16.00;;;5.00;;
29814;SDS011;16708;50.426;7.664;2023-07-31T21:40:02;12.20;;;5.00;;
29814;SDS011;16708;50.426;7.664;2023-07-31T21:44:57;13.90;;;5.50;;
29814;SDS011;16708;50.426;7.664;2023-07-31T21:49:51;20.60;;;5.40;;
29814;SDS011;16708;50.426;7.664;2023-07-31T21:54:45;12.30;;;5.10;;
29814;SDS011;16708;50.426;7.664;2023-07-31T21:59:40;17.40;;;5.30;;
29814;SDS011;16708;50.426;7.664;2023-07-31T22:04:34;12.90;;;5.20;;
29814;SDS011;16708;50.426;7.664;2023-07-31T22:09:29;17.90;;;5.40;;
29814;SDS011;16708;50.426;7.664;2023-07-31T22:14:23;14.80;;;5.30;;
29814;SDS011;16708;50.426;7.664;2023-07-31T22:19:18;15.00;;;5.70;;
29814;SDS011;16708;50.426;7.664;2023-07-31T22:24:12;12.90;;;5.60;;
29814;SDS011;16708;50.426;7.664;2023-07-31T22:29:06;14.80;;;5.60;;
29814;SDS011;16708;50.426;7.664;2023-07-31T22:34:00;18.30;;;5.60;;
29814;SDS011;16708;50.426;7.664;2023-07-31T22:38:55;16.20;;;5.30;;
29814;SDS011;16708;50.426;7.664;2023-07-31T22:43:49;11.50;;;4.60;;
29814;SDS011;16708;50.426;7.664;2023-07-31T22:48:44;13.20;;;4.70;;
29814;SDS011;16708;50.426;7.664;2023-07-31T22:53:38;13.80;;;4.40;;
29814;SDS011;16708;50.426;7.664;2023-07-31T22:58:32;14.20;;;4.20;;
29814;SDS011;16708;50.426;7.664;2023-07-31T23:03:26;13.30;;;4.10;;
29814;SDS011;16708;50.426;7.664;2023-07-31T23:08:21;10.00;;;4.40;;
29814;SDS011;16708;50.426;7.664;2023-07-31T23:13:15;11.90;;;4.40;;
29814;SDS011;16708;50.426;7.664;2023-07-31T23:18:10;8.60;;;3.80;;
29814;SDS011;16708;50.426;7.664;2023-07-31T23:23:03;10.70;;;4.00;;
29814;SDS011;16708;50.426;7.664;2023-07-31T23:27:58;10.10;;;3.90;;
29814;SDS011;16708;50.426;7.664;2023-07-31T23:32:55;8.60;;;3.70;;
29814;SDS011;16708;50.426;7.664;2023-07-31T23:37:45;10.60;;;4.00;;
29814;SDS011;16708;50.426;7.664;2023-07-31T23:42:40;9.80;;;4.20;;
29814;SDS011;16708;50.426;7.664;2023-07-31T23:47:35;9.90;;;3.90;;
29814;SDS011;16708;50.426;7.664;2023-07-31T23:52:29;9.50;;;3.70;;
29814;SDS011;16708;50.426;7.664;2023-07-31T23:57:24;7.00;;;3.80;;
